sensor_id;sensor_type;location;lat;lon;timestamp;P1;durP1;ratioP1;P2;durP2;ratioP2
78205;SDS011;67480;48.920;12.880;2023-10-13T00:00:32;11.90;;;7.53;;
78205;SDS011;67480;48.920;12.880;2023-10-13T00:03:05;11.60;;;7.15;;
78205;SDS011;67480;48.920;12.880;2023-10-13T00:05:31;13.02;;;8.10;;
78205;SDS011;67480;48.920;12.880;2023-10-13T00:07:59;10.80;;;6.85;;
78205;SDS011;67480;48.920;12.880;2023-10-13T00:10:31;12.85;;;7.43;;
78205;SDS011;67480;48.920;12.880;2023-10-13T00:12:58;11.18;;;7.78;;
78205;SDS011;67480;48.920;12.880;2023-10-13T00:15:43;11.68;;;7.63;;
78205;SDS011;67480;48.920;12.880;2023-10-13T00:18:26;13.07;;;6.82;;
78205;SDS011;67480;48.920;12.880;2023-10-13T00:20:55;9.65;;;6.93;;
78205;SDS011;67480;48.920;12.880;2023-10-13T00:23:23;10.18;;;7.15;;
78205;SDS011;67480;48.920;12.880;2023-10-13T00:25:52;11.57;;;7.22;;
78205;SDS011;67480;48.920;12.880;2023-10-13T00:28:27;9.63;;;7.28;;
78205;SDS011;67480;48.920;12.880;2023-10-13T00:31:00;13.55;;;7.85;;
78205;SDS011;67480;48.920;12.880;2023-10-13T00:33:35;13.73;;;7.13;;
78205;SDS011;67480;48.920;12.880;2023-10-13T00:36:03;13.23;;;7.00;;
78205;SDS011;67480;48.920;12.880;2023-10-13T00:38:30;10.82;;;7.85;;
78205;SDS011;67480;48.920;12.880;2023-10-13T00:40:55;10.45;;;7.68;;
78205;SDS011;67480;48.920;12.880;2023-10-13T00:43:28;15.57;;;7.63;;
78205;SDS011;67480;48.920;12.880;2023-10-13T00:45:54;11.25;;;7.28;;
78205;SDS011;67480;48.920;12.880;2023-10-13T00:48:28;9.52;;;6.70;;
78205;SDS011;67480;48.920;12.880;2023-10-13T00:50:58;11.45;;;7.15;;
78205;SDS011;67480;48.920;12.880;2023-10-13T00:53:35;13.82;;;7.43;;
78205;SDS011;67480;48.920;12.880;2023-10-13T00:56:09;11.60;;;7.47;;
78205;SDS011;67480;48.920;12.880;2023-10-13T00:58:52;13.18;;;7.60;;
78205;SDS011;67480;48.920;12.880;2023-10-13T01:01:18;12.48;;;7.93;;
78205;SDS011;67480;48.920;12.880;2023-10-13T01:03:51;12.02;;;7.38;;
78205;SDS011;67480;48.920;12.880;2023-10-13T01:06:20;12.88;;;7.45;;
78205;SDS011;67480;48.920;12.880;2023-10-13T01:08:56;12.02;;;7.18;;
78205;SDS011;67480;48.920;12.880;2023-10-13T01:11:43;14.77;;;8.20;;
78205;SDS011;67480;48.920;12.880;2023-10-13T01:14:17;10.93;;;7.68;;
78205;SDS011;67480;48.920;12.880;2023-10-13T01:16:46;13.25;;;7.70;;
78205;SDS011;67480;48.920;12.880;2023-10-13T01:19:15;9.90;;;6.90;;
78205;SDS011;67480;48.920;12.880;2023-10-13T01:21:50;12.23;;;7.35;;
78205;SDS011;67480;48.920;12.880;2023-10-13T01:24:22;11.90;;;7.25;;
78205;SDS011;67480;48.920;12.880;2023-10-13T01:26:49;12.70;;;7.63;;
78205;SDS011;67480;48.920;12.880;2023-10-13T01:29:16;12.68;;;6.80;;
78205;SDS011;67480;48.920;12.880;2023-10-13T01:31:44;11.10;;;7.35;;
78205;SDS011;67480;48.920;12.880;2023-10-13T01:34:13;8.95;;;6.95;;
78205;SDS011;67480;48.920;12.880;2023-10-13T01:36:44;15.18;;;8.07;;
78205;SDS011;67480;48.920;12.880;2023-10-13T01:39:10;11.10;;;7.55;;
78205;SDS011;67480;48.920;12.880;2023-10-13T01:41:36;13.18;;;7.47;;
78205;SDS011;67480;48.920;12.880;2023-10-13T01:44:04;11.50;;;7.88;;
78205;SDS011;67480;48.920;12.880;2023-10-13T01:46:29;13.52;;;8.00;;
78205;SDS011;67480;48.920;12.880;2023-10-13T01:48:55;9.77;;;7.40;;
78205;SDS011;67480;48.920;12.880;2023-10-13T01:51:22;14.88;;;7.55;;
78205;SDS011;67480;48.920;12.880;2023-10-13T01:53:53;12.25;;;7.90;;
78205;SDS011;67480;48.920;12.880;2023-10-13T01:56:23;12.85;;;8.23;;
78205;SDS011;67480;48.920;12.880;2023-10-13T01:58:49;10.00;;;7.32;;
78205;SDS011;67480;48.920;12.880;2023-10-13T02:01:14;15.45;;;7.78;;
78205;SDS011;67480;48.920;12.880;2023-10-13T02:03:51;12.45;;;7.53;;
78205;SDS011;67480;48.920;12.880;2023-10-13T02:06:26;15.07;;;8.45;;
78205;SDS011;67480;48.920;12.880;2023-10-13T02:09:01;13.00;;;7.45;;
78205;SDS011;67480;48.920;12.880;2023-10-13T02:11:39;11.40;;;7.53;;
78205;SDS011;67480;48.920;12.880;2023-10-13T02:14:05;10.75;;;7.47;;
78205;SDS011;67480;48.920;12.880;2023-10-13T02:16:30;12.65;;;7.97;;
78205;SDS011;67480;48.920;12.880;2023-10-13T02:18:56;12.40;;;7.82;;
78205;SDS011;67480;48.920;12.880;2023-10-13T02:21:22;10.93;;;7.18;;
78205;SDS011;67480;48.920;12.880;2023-10-13T02:23:56;8.60;;;7.38;;
78205;SDS011;67480;48.920;12.880;2023-10-13T02:26:31;12.35;;;7.68;;
78205;SDS011;67480;48.920;12.880;2023-10-13T02:29:00;10.52;;;7.40;;
78205;SDS011;67480;48.920;12.880;2023-10-13T02:31:36;11.73;;;7.22;;
78205;SDS011;67480;48.920;12.880;2023-10-13T02:34:02;11.70;;;7.35;;
78205;SDS011;67480;48.920;12.880;2023-10-13T02:36:33;13.65;;;7.30;;
78205;SDS011;67480;48.920;12.880;2023-10-13T02:39:03;12.70;;;7.75;;
78205;SDS011;67480;48.920;12.880;2023-10-13T02:41:32;10.45;;;7.47;;
78205;SDS011;67480;48.920;12.880;2023-10-13T02:44:02;12.35;;;7.82;;
78205;SDS011;67480;48.920;12.880;2023-10-13T02:46:31;10.40;;;7.45;;
78205;SDS011;67480;48.920;12.880;2023-10-13T02:49:00;14.63;;;7.50;;
78205;SDS011;67480;48.920;12.880;2023-10-13T02:51:27;12.35;;;6.57;;
78205;SDS011;67480;48.920;12.880;2023-10-13T02:54:03;11.98;;;7.88;;
78205;SDS011;67480;48.920;12.880;2023-10-13T02:56:45;11.43;;;7.13;;
78205;SDS011;67480;48.920;12.880;2023-10-13T02:59:28;13.15;;;7.68;;
78205;SDS011;67480;48.920;12.880;2023-10-13T03:02:20;14.77;;;8.15;;
78205;SDS011;67480;48.920;12.880;2023-10-13T03:04:54;12.25;;;7.43;;
78205;SDS011;67480;48.920;12.880;2023-10-13T03:07:34;11.80;;;7.20;;
78205;SDS011;67480;48.920;12.880;2023-10-13T03:10:03;10.25;;;7.38;;
78205;SDS011;67480;48.920;12.880;2023-10-13T03:12:38;11.45;;;7.00;;
78205;SDS011;67480;48.920;12.880;2023-10-13T03:15:05;11.57;;;7.18;;
78205;SDS011;67480;48.920;12.880;2023-10-13T03:17:58;9.27;;;7.43;;
78205;SDS011;67480;48.920;12.880;2023-10-13T03:20:23;12.05;;;6.80;;
78205;SDS011;67480;48.920;12.880;2023-10-13T03:22:56;10.30;;;7.57;;
78205;SDS011;67480;48.920;12.880;2023-10-13T03:25:23;11.50;;;7.30;;
78205;SDS011;67480;48.920;12.880;2023-10-13T03:27:58;10.68;;;7.53;;
78205;SDS011;67480;48.920;12.880;2023-10-13T03:30:23;9.93;;;7.22;;
78205;SDS011;67480;48.920;12.880;2023-10-13T03:32:59;11.93;;;7.93;;
78205;SDS011;67480;48.920;12.880;2023-10-13T03:35:26;14.90;;;7.72;;
78205;SDS011;67480;48.920;12.880;2023-10-13T03:38:02;14.38;;;7.95;;
78205;SDS011;67480;48.920;12.880;2023-10-13T03:40:29;10.82;;;7.32;;
78205;SDS011;67480;48.920;12.880;2023-10-13T03:42:55;13.63;;;8.25;;
78205;SDS011;67480;48.920;12.880;2023-10-13T03:45:38;10.70;;;7.68;;
78205;SDS011;67480;48.920;12.880;2023-10-13T03:48:08;12.65;;;7.28;;
78205;SDS011;67480;48.920;12.880;2023-10-13T03:50:46;11.73;;;8.02;;
78205;SDS011;67480;48.920;12.880;2023-10-13T03:53:31;10.63;;;7.22;;
78205;SDS011;67480;48.920;12.880;2023-10-13T03:56:17;12.63;;;7.82;;
78205;SDS011;67480;48.920;12.880;2023-10-13T03:59:02;10.73;;;7.28;;
78205;SDS011;67480;48.920;12.880;2023-10-13T04:01:40;12.65;;;7.78;;
78205;SDS011;67480;48.920;12.880;2023-10-13T04:04:08;9.27;;;7.47;;
78205;SDS011;67480;48.920;12.880;2023-10-13T04:06:36;10.95;;;8.15;;
78205;SDS011;67480;48.920;12.880;2023-10-13T04:09:20;11.70;;;7.65;;
78205;SDS011;67480;48.920;12.880;2023-10-13T04:11:56;14.32;;;8.80;;
78205;SDS011;67480;48.920;12.880;2023-10-13T04:14:24;12.20;;;9.05;;
78205;SDS011;67480;48.920;12.880;2023-10-13T04:17:10;13.68;;;9.02;;
78205;SDS011;67480;48.920;12.880;2023-10-13T04:20:02;13.90;;;8.68;;
78205;SDS011;67480;48.920;12.880;2023-10-13T04:22:30;10.15;;;8.07;;
78205;SDS011;67480;48.920;12.880;2023-10-13T04:25:12;14.25;;;8.55;;
78205;SDS011;67480;48.920;12.880;2023-10-13T04:27:56;15.00;;;8.07;;
78205;SDS011;67480;48.920;12.880;2023-10-13T04:30:40;11.80;;;8.10;;
78205;SDS011;67480;48.920;12.880;2023-10-13T04:33:17;13.98;;;7.97;;
78205;SDS011;67480;48.920;12.880;2023-10-13T04:38:44;12.95;;;8.27;;
78205;SDS011;67480;48.920;12.880;2023-10-13T04:41:30;12.98;;;7.32;;
78205;SDS011;67480;48.920;12.880;2023-10-13T04:44:12;12.38;;;8.15;;
78205;SDS011;67480;48.920;12.880;2023-10-13T04:46:57;14.63;;;8.23;;
78205;SDS011;67480;48.920;12.880;2023-10-13T04:49:24;12.77;;;8.65;;
78205;SDS011;67480;48.920;12.880;2023-10-13T04:51:53;12.52;;;7.30;;
78205;SDS011;67480;48.920;12.880;2023-10-13T04:54:35;11.48;;;8.23;;
78205;SDS011;67480;48.920;12.880;2023-10-13T04:57:35;13.20;;;8.60;;
78205;SDS011;67480;48.920;12.880;2023-10-13T05:00:12;11.50;;;7.80;;
78205;SDS011;67480;48.920;12.880;2023-10-13T05:02:45;15.85;;;8.23;;
78205;SDS011;67480;48.920;12.880;2023-10-13T05:05:26;11.43;;;7.97;;
78205;SDS011;67480;48.920;12.880;2023-10-13T05:08:21;14.40;;;8.65;;
78205;SDS011;67480;48.920;12.880;2023-10-13T05:11:05;11.67;;;8.03;;
78205;SDS011;67480;48.920;12.880;2023-10-13T05:16:33;13.57;;;9.05;;
78205;SDS011;67480;48.920;12.880;2023-10-13T05:19:17;10.55;;;8.45;;
78205;SDS011;67480;48.920;12.880;2023-10-13T05:22:01;15.45;;;9.93;;
78205;SDS011;67480;48.920;12.880;2023-10-13T05:24:44;13.88;;;8.70;;
78205;SDS011;67480;48.920;12.880;2023-10-13T05:27:28;12.75;;;8.48;;
78205;SDS011;67480;48.920;12.880;2023-10-13T05:30:12;14.25;;;8.20;;
78205;SDS011;67480;48.920;12.880;2023-10-13T05:32:56;15.15;;;8.43;;
78205;SDS011;67480;48.920;12.880;2023-10-13T05:35:40;12.77;;;8.67;;
78205;SDS011;67480;48.920;12.880;2023-10-13T05:38:24;13.93;;;8.90;;
78205;SDS011;67480;48.920;12.880;2023-10-13T05:41:08;12.00;;;7.90;;
78205;SDS011;67480;48.920;12.880;2023-10-13T05:43:52;13.00;;;8.27;;
78205;SDS011;67480;48.920;12.880;2023-10-13T05:46:36;15.55;;;8.82;;
78205;SDS011;67480;48.920;12.880;2023-10-13T05:49:08;13.35;;;8.70;;
78205;SDS011;67480;48.920;12.880;2023-10-13T05:51:34;12.93;;;8.32;;
78205;SDS011;67480;48.920;12.880;2023-10-13T05:54:12;15.85;;;7.90;;
78205;SDS011;67480;48.920;12.880;2023-10-13T05:56:38;15.32;;;8.82;;
78205;SDS011;67480;48.920;12.880;2023-10-13T05:59:26;13.73;;;8.90;;
78205;SDS011;67480;48.920;12.880;2023-10-13T06:02:11;16.20;;;9.32;;
78205;SDS011;67480;48.920;12.880;2023-10-13T06:04:56;16.50;;;8.93;;
78205;SDS011;67480;48.920;12.880;2023-10-13T06:07:40;13.25;;;8.90;;
78205;SDS011;67480;48.920;12.880;2023-10-13T06:10:24;16.13;;;8.55;;
78205;SDS011;67480;48.920;12.880;2023-10-13T06:13:08;11.40;;;8.40;;
78205;SDS011;67480;48.920;12.880;2023-10-13T06:15:52;13.02;;;8.25;;
78205;SDS011;67480;48.920;12.880;2023-10-13T06:18:36;13.98;;;8.18;;
78205;SDS011;67480;48.920;12.880;2023-10-13T06:21:20;12.70;;;8.48;;
78205;SDS011;67480;48.920;12.880;2023-10-13T06:24:07;10.98;;;7.82;;
78205;SDS011;67480;48.920;12.880;2023-10-13T06:26:52;25.13;;;15.68;;
78205;SDS011;67480;48.920;12.880;2023-10-13T06:29:36;13.73;;;9.50;;
78205;SDS011;67480;48.920;12.880;2023-10-13T06:32:01;12.18;;;8.07;;
78205;SDS011;67480;48.920;12.880;2023-10-13T06:34:30;13.52;;;8.23;;
78205;SDS011;67480;48.920;12.880;2023-10-13T06:37:11;12.30;;;9.13;;
78205;SDS011;67480;48.920;12.880;2023-10-13T06:39:53;14.45;;;8.60;;
78205;SDS011;67480;48.920;12.880;2023-10-13T06:42:30;11.25;;;7.88;;
78205;SDS011;67480;48.920;12.880;2023-10-13T06:44:59;12.25;;;7.78;;
78205;SDS011;67480;48.920;12.880;2023-10-13T06:47:34;15.10;;;8.70;;
78205;SDS011;67480;48.920;12.880;2023-10-13T06:50:05;15.88;;;8.00;;
78205;SDS011;67480;48.920;12.880;2023-10-13T06:52:40;12.95;;;8.60;;
78205;SDS011;67480;48.920;12.880;2023-10-13T06:55:09;11.13;;;8.25;;
78205;SDS011;67480;48.920;12.880;2023-10-13T06:57:44;11.00;;;8.10;;
78205;SDS011;67480;48.920;12.880;2023-10-13T07:00:12;14.23;;;8.82;;
78205;SDS011;67480;48.920;12.880;2023-10-13T07:03:00;11.25;;;8.43;;
78205;SDS011;67480;48.920;12.880;2023-10-13T07:05:37;11.68;;;7.82;;
78205;SDS011;67480;48.920;12.880;2023-10-13T07:08:06;11.70;;;8.32;;
78205;SDS011;67480;48.920;12.880;2023-10-13T07:10:34;10.75;;;7.65;;
78205;SDS011;67480;48.920;12.880;2023-10-13T07:13:18;14.30;;;8.23;;
78205;SDS011;67480;48.920;12.880;2023-10-13T07:15:45;15.52;;;7.97;;
78205;SDS011;67480;48.920;12.880;2023-10-13T07:18:14;14.93;;;7.85;;
78205;SDS011;67480;48.920;12.880;2023-10-13T07:20:43;13.85;;;8.90;;
78205;SDS011;67480;48.920;12.880;2023-10-13T07:23:12;13.55;;;8.60;;
78205;SDS011;67480;48.920;12.880;2023-10-13T07:25:52;11.97;;;8.67;;
78205;SDS011;67480;48.920;12.880;2023-10-13T07:28:27;15.80;;;7.93;;
78205;SDS011;67480;48.920;12.880;2023-10-13T07:30:56;11.52;;;8.23;;
78205;SDS011;67480;48.920;12.880;2023-10-13T07:33:24;17.83;;;8.73;;
78205;SDS011;67480;48.920;12.880;2023-10-13T07:36:00;14.13;;;8.50;;
78205;SDS011;67480;48.920;12.880;2023-10-13T07:38:26;11.75;;;8.55;;
78205;SDS011;67480;48.920;12.880;2023-10-13T07:40:56;14.45;;;8.15;;
78205;SDS011;67480;48.920;12.880;2023-10-13T07:43:32;11.68;;;8.55;;
78205;SDS011;67480;48.920;12.880;2023-10-13T07:45:58;15.00;;;8.50;;
78205;SDS011;67480;48.920;12.880;2023-10-13T07:48:24;11.60;;;8.32;;
78205;SDS011;67480;48.920;12.880;2023-10-13T07:51:04;18.92;;;8.95;;
78205;SDS011;67480;48.920;12.880;2023-10-13T07:53:40;11.10;;;7.95;;
78205;SDS011;67480;48.920;12.880;2023-10-13T07:56:08;12.98;;;7.82;;
78205;SDS011;67480;48.920;12.880;2023-10-13T07:58:36;15.25;;;8.70;;
78205;SDS011;67480;48.920;12.880;2023-10-13T08:01:13;10.20;;;7.75;;
78205;SDS011;67480;48.920;12.880;2023-10-13T08:03:45;10.27;;;7.50;;
78205;SDS011;67480;48.920;12.880;2023-10-13T08:06:15;12.65;;;7.97;;
78205;SDS011;67480;48.920;12.880;2023-10-13T08:08:42;11.63;;;7.72;;
78205;SDS011;67480;48.920;12.880;2023-10-13T08:13:59;11.98;;;7.78;;
78205;SDS011;67480;48.920;12.880;2023-10-13T08:16:29;11.93;;;7.70;;
78205;SDS011;67480;48.920;12.880;2023-10-13T08:19:18;9.90;;;7.47;;
78205;SDS011;67480;48.920;12.880;2023-10-13T08:21:45;10.02;;;7.60;;
78205;SDS011;67480;48.920;12.880;2023-10-13T08:24:17;15.68;;;8.45;;
78205;SDS011;67480;48.920;12.880;2023-10-13T08:26:51;10.98;;;7.45;;
78205;SDS011;67480;48.920;12.880;2023-10-13T08:29:46;11.48;;;7.35;;
78205;SDS011;67480;48.920;12.880;2023-10-13T08:32:24;10.90;;;7.63;;
78205;SDS011;67480;48.920;12.880;2023-10-13T08:34:53;9.27;;;7.68;;
78205;SDS011;67480;48.920;12.880;2023-10-13T08:37:34;14.05;;;7.75;;
78205;SDS011;67480;48.920;12.880;2023-10-13T08:40:19;9.97;;;7.40;;
78205;SDS011;67480;48.920;12.880;2023-10-13T08:43:11;11.18;;;7.03;;
78205;SDS011;67480;48.920;12.880;2023-10-13T08:45:41;9.00;;;7.65;;
78205;SDS011;67480;48.920;12.880;2023-10-13T08:48:08;9.60;;;7.20;;
78205;SDS011;67480;48.920;12.880;2023-10-13T08:50:38;10.02;;;7.90;;
78205;SDS011;67480;48.920;12.880;2023-10-13T08:53:17;9.93;;;6.80;;
78205;SDS011;67480;48.920;12.880;2023-10-13T08:55:56;10.65;;;6.70;;
78205;SDS011;67480;48.920;12.880;2023-10-13T08:58:32;10.40;;;6.78;;
78205;SDS011;67480;48.920;12.880;2023-10-13T09:01:17;10.05;;;6.35;;
78205;SDS011;67480;48.920;12.880;2023-10-13T09:04:12;11.25;;;6.35;;
78205;SDS011;67480;48.920;12.880;2023-10-13T09:09:31;14.50;;;5.78;;
78205;SDS011;67480;48.920;12.880;2023-10-13T09:12:17;6.82;;;5.88;;
78205;SDS011;67480;48.920;12.880;2023-10-13T09:14:59;9.40;;;6.43;;
78205;SDS011;67480;48.920;12.880;2023-10-13T09:17:50;10.85;;;6.13;;
78205;SDS011;67480;48.920;12.880;2023-10-13T09:20:15;9.65;;;6.47;;
78205;SDS011;67480;48.920;12.880;2023-10-13T09:22:48;9.05;;;6.03;;
78205;SDS011;67480;48.920;12.880;2023-10-13T09:25:36;9.98;;;5.78;;
78205;SDS011;67480;48.920;12.880;2023-10-13T09:28:03;7.85;;;5.72;;
78205;SDS011;67480;48.920;12.880;2023-10-13T09:30:49;7.88;;;5.90;;
78205;SDS011;67480;48.920;12.880;2023-10-13T09:33:25;9.43;;;6.00;;
78205;SDS011;67480;48.920;12.880;2023-10-13T09:36:01;8.90;;;6.18;;
78205;SDS011;67480;48.920;12.880;2023-10-13T09:38:31;8.32;;;6.22;;
78205;SDS011;67480;48.920;12.880;2023-10-13T09:40:58;9.57;;;5.78;;
78205;SDS011;67480;48.920;12.880;2023-10-13T09:43:42;7.32;;;5.35;;
78205;SDS011;67480;48.920;12.880;2023-10-13T09:46:08;9.05;;;6.00;;
78205;SDS011;67480;48.920;12.880;2023-10-13T09:48:46;10.70;;;5.90;;
78205;SDS011;67480;48.920;12.880;2023-10-13T09:51:17;8.63;;;6.13;;
78205;SDS011;67480;48.920;12.880;2023-10-13T09:56:32;13.18;;;5.47;;
78205;SDS011;67480;48.920;12.880;2023-10-13T09:59:17;8.15;;;5.05;;
78205;SDS011;67480;48.920;12.880;2023-10-13T10:01:48;8.80;;;5.30;;
78205;SDS011;67480;48.920;12.880;2023-10-13T10:04:22;7.45;;;5.13;;
78205;SDS011;67480;48.920;12.880;2023-10-13T10:06:58;9.05;;;5.32;;
78205;SDS011;67480;48.920;12.880;2023-10-13T10:09:31;9.88;;;5.32;;
78205;SDS011;67480;48.920;12.880;2023-10-13T10:12:36;10.32;;;5.57;;
78205;SDS011;67480;48.920;12.880;2023-10-13T10:17:45;9.38;;;4.72;;
78205;SDS011;67480;48.920;12.880;2023-10-13T10:20:12;8.07;;;4.88;;
78205;SDS011;67480;48.920;12.880;2023-10-13T10:22:58;7.50;;;5.45;;
78205;SDS011;67480;48.920;12.880;2023-10-13T10:25:33;8.98;;;5.47;;
78205;SDS011;67480;48.920;12.880;2023-10-13T10:28:04;9.48;;;4.65;;
78205;SDS011;67480;48.920;12.880;2023-10-13T10:30:31;7.80;;;4.68;;
78205;SDS011;67480;48.920;12.880;2023-10-13T10:33:04;5.90;;;4.47;;
78205;SDS011;67480;48.920;12.880;2023-10-13T10:35:41;8.65;;;4.35;;
78205;SDS011;67480;48.920;12.880;2023-10-13T10:38:11;9.00;;;5.32;;
78205;SDS011;67480;48.920;12.880;2023-10-13T10:40:55;8.15;;;4.75;;
78205;SDS011;67480;48.920;12.880;2023-10-13T10:43:25;7.07;;;4.00;;
78205;SDS011;67480;48.920;12.880;2023-10-13T10:45:52;7.80;;;4.68;;
78205;SDS011;67480;48.920;12.880;2023-10-13T10:48:18;8.40;;;4.63;;
78205;SDS011;67480;48.920;12.880;2023-10-13T10:50:56;10.13;;;4.32;;
78205;SDS011;67480;48.920;12.880;2023-10-13T10:53:22;10.75;;;5.10;;
78205;SDS011;67480;48.920;12.880;2023-10-13T10:55:49;8.85;;;4.82;;
78205;SDS011;67480;48.920;12.880;2023-10-13T10:58:14;8.63;;;5.35;;
78205;SDS011;67480;48.920;12.880;2023-10-13T11:01:07;6.60;;;4.80;;
78205;SDS011;67480;48.920;12.880;2023-10-13T11:03:37;10.48;;;5.03;;
78205;SDS011;67480;48.920;12.880;2023-10-13T11:06:06;5.55;;;4.32;;
78205;SDS011;67480;48.920;12.880;2023-10-13T11:08:40;7.60;;;4.72;;
78205;SDS011;67480;48.920;12.880;2023-10-13T11:11:06;9.77;;;5.00;;
78205;SDS011;67480;48.920;12.880;2023-10-13T11:13:43;7.72;;;4.40;;
78205;SDS011;67480;48.920;12.880;2023-10-13T11:16:22;7.03;;;4.38;;
78205;SDS011;67480;48.920;12.880;2023-10-13T11:19:02;6.22;;;4.40;;
78205;SDS011;67480;48.920;12.880;2023-10-13T11:21:30;8.50;;;4.93;;
78205;SDS011;67480;48.920;12.880;2023-10-13T11:23:56;6.60;;;4.68;;
78205;SDS011;67480;48.920;12.880;2023-10-13T11:26:32;5.53;;;4.13;;
78205;SDS011;67480;48.920;12.880;2023-10-13T11:28:58;8.00;;;4.20;;
78205;SDS011;67480;48.920;12.880;2023-10-13T11:31:24;7.53;;;4.90;;
78205;SDS011;67480;48.920;12.880;2023-10-13T11:33:49;10.70;;;4.78;;
78205;SDS011;67480;48.920;12.880;2023-10-13T11:36:15;6.00;;;4.50;;
78205;SDS011;67480;48.920;12.880;2023-10-13T11:38:56;7.72;;;4.00;;
78205;SDS011;67480;48.920;12.880;2023-10-13T11:41:22;10.00;;;4.15;;
78205;SDS011;67480;48.920;12.880;2023-10-13T11:43:49;8.73;;;4.20;;
78205;SDS011;67480;48.920;12.880;2023-10-13T11:46:15;6.95;;;4.15;;
78205;SDS011;67480;48.920;12.880;2023-10-13T11:49:04;7.38;;;4.72;;
78205;SDS011;67480;48.920;12.880;2023-10-13T11:54:13;5.35;;;3.78;;
78205;SDS011;67480;48.920;12.880;2023-10-13T11:56:41;7.00;;;4.15;;
78205;SDS011;67480;48.920;12.880;2023-10-13T11:59:07;8.18;;;4.35;;
78205;SDS011;67480;48.920;12.880;2023-10-13T12:01:42;8.03;;;4.40;;
78205;SDS011;67480;48.920;12.880;2023-10-13T12:04:35;7.43;;;3.93;;
78205;SDS011;67480;48.920;12.880;2023-10-13T12:07:22;8.10;;;4.00;;
78205;SDS011;67480;48.920;12.880;2023-10-13T12:10:06;7.50;;;5.00;;
78205;SDS011;67480;48.920;12.880;2023-10-13T12:12:40;7.93;;;4.07;;
78205;SDS011;67480;48.920;12.880;2023-10-13T12:15:08;6.65;;;4.25;;
78205;SDS011;67480;48.920;12.880;2023-10-13T12:17:35;9.65;;;4.57;;
78205;SDS011;67480;48.920;12.880;2023-10-13T12:20:05;11.02;;;4.30;;
78205;SDS011;67480;48.920;12.880;2023-10-13T12:22:36;7.22;;;4.63;;
78205;SDS011;67480;48.920;12.880;2023-10-13T12:25:08;7.68;;;3.97;;
78205;SDS011;67480;48.920;12.880;2023-10-13T12:27:57;8.27;;;4.18;;
78205;SDS011;67480;48.920;12.880;2023-10-13T12:30:23;7.80;;;4.70;;
78205;SDS011;67480;48.920;12.880;2023-10-13T12:33:01;6.95;;;4.65;;
78205;SDS011;67480;48.920;12.880;2023-10-13T12:35:39;5.65;;;4.13;;
78205;SDS011;67480;48.920;12.880;2023-10-13T12:38:23;6.35;;;4.15;;
78205;SDS011;67480;48.920;12.880;2023-10-13T12:41:07;14.23;;;4.90;;
78205;SDS011;67480;48.920;12.880;2023-10-13T12:43:51;10.80;;;4.72;;
78205;SDS011;67480;48.920;12.880;2023-10-13T12:46:36;11.82;;;5.03;;
78205;SDS011;67480;48.920;12.880;2023-10-13T12:49:20;10.50;;;4.00;;
78205;SDS011;67480;48.920;12.880;2023-10-13T12:52:04;6.30;;;4.65;;
78205;SDS011;67480;48.920;12.880;2023-10-13T12:54:30;9.73;;;4.47;;
78205;SDS011;67480;48.920;12.880;2023-10-13T12:57:04;7.82;;;4.32;;
78205;SDS011;67480;48.920;12.880;2023-10-13T12:59:34;8.10;;;4.40;;
78205;SDS011;67480;48.920;12.880;2023-10-13T13:01:59;5.97;;;4.28;;
78205;SDS011;67480;48.920;12.880;2023-10-13T13:04:26;8.00;;;4.30;;
78205;SDS011;67480;48.920;12.880;2023-10-13T13:06:57;9.90;;;5.28;;
78205;SDS011;67480;48.920;12.880;2023-10-13T13:09:22;13.10;;;5.47;;
78205;SDS011;67480;48.920;12.880;2023-10-13T13:11:54;8.63;;;4.60;;
78205;SDS011;67480;48.920;12.880;2023-10-13T13:14:23;10.98;;;4.53;;
78205;SDS011;67480;48.920;12.880;2023-10-13T13:16:55;9.45;;;4.97;;
78205;SDS011;67480;48.920;12.880;2023-10-13T13:19:29;9.40;;;4.10;;
78205;SDS011;67480;48.920;12.880;2023-10-13T13:22:04;10.93;;;4.45;;
78205;SDS011;67480;48.920;12.880;2023-10-13T13:24:30;9.20;;;4.22;;
78205;SDS011;67480;48.920;12.880;2023-10-13T13:26:57;8.10;;;4.80;;
78205;SDS011;67480;48.920;12.880;2023-10-13T13:29:28;8.35;;;4.15;;
78205;SDS011;67480;48.920;12.880;2023-10-13T13:31:55;10.02;;;4.63;;
78205;SDS011;67480;48.920;12.880;2023-10-13T13:34:20;11.95;;;4.72;;
78205;SDS011;67480;48.920;12.880;2023-10-13T13:36:47;6.40;;;4.32;;
78205;SDS011;67480;48.920;12.880;2023-10-13T13:39:17;8.23;;;4.50;;
78205;SDS011;67480;48.920;12.880;2023-10-13T13:41:54;11.10;;;5.13;;
78205;SDS011;67480;48.920;12.880;2023-10-13T13:44:22;8.23;;;4.47;;
78205;SDS011;67480;48.920;12.880;2023-10-13T13:46:54;8.10;;;4.28;;
78205;SDS011;67480;48.920;12.880;2023-10-13T13:49:21;7.50;;;4.22;;
78205;SDS011;67480;48.920;12.880;2023-10-13T13:51:54;9.88;;;4.45;;
78205;SDS011;67480;48.920;12.880;2023-10-13T13:54:21;8.80;;;4.47;;
78205;SDS011;67480;48.920;12.880;2023-10-13T13:56:47;8.45;;;5.00;;
78205;SDS011;67480;48.920;12.880;2023-10-13T13:59:13;9.18;;;5.03;;
78205;SDS011;67480;48.920;12.880;2023-10-13T14:01:44;8.10;;;4.45;;
78205;SDS011;67480;48.920;12.880;2023-10-13T14:04:10;8.68;;;4.10;;
78205;SDS011;67480;48.920;12.880;2023-10-13T14:06:36;10.80;;;4.55;;
78205;SDS011;67480;48.920;12.880;2023-10-13T14:09:03;10.40;;;4.75;;
78205;SDS011;67480;48.920;12.880;2023-10-13T14:11:39;6.22;;;3.85;;
78205;SDS011;67480;48.920;12.880;2023-10-13T14:14:05;9.35;;;4.10;;
78205;SDS011;67480;48.920;12.880;2023-10-13T14:16:51;6.07;;;4.20;;
78205;SDS011;67480;48.920;12.880;2023-10-13T14:19:18;11.15;;;5.30;;
78205;SDS011;67480;48.920;12.880;2023-10-13T14:21:55;7.32;;;4.93;;
78205;SDS011;67480;48.920;12.880;2023-10-13T14:24:21;8.82;;;4.20;;
78205;SDS011;67480;48.920;12.880;2023-10-13T14:26:57;9.10;;;4.18;;
78205;SDS011;67480;48.920;12.880;2023-10-13T14:29:42;8.60;;;3.90;;
78205;SDS011;67480;48.920;12.880;2023-10-13T14:32:08;15.45;;;4.57;;
78205;SDS011;67480;48.920;12.880;2023-10-13T14:34:41;8.35;;;4.72;;
78205;SDS011;67480;48.920;12.880;2023-10-13T14:37:08;8.15;;;4.40;;
78205;SDS011;67480;48.920;12.880;2023-10-13T14:39:37;11.15;;;5.20;;
78205;SDS011;67480;48.920;12.880;2023-10-13T14:42:02;9.38;;;4.63;;
78205;SDS011;67480;48.920;12.880;2023-10-13T14:44:31;9.07;;;4.97;;
78205;SDS011;67480;48.920;12.880;2023-10-13T14:46:58;8.57;;;4.50;;
78205;SDS011;67480;48.920;12.880;2023-10-13T14:49:23;8.55;;;4.93;;
78205;SDS011;67480;48.920;12.880;2023-10-13T14:51:48;7.45;;;4.63;;
78205;SDS011;67480;48.920;12.880;2023-10-13T14:54:15;9.57;;;4.47;;
78205;SDS011;67480;48.920;12.880;2023-10-13T14:56:40;10.30;;;4.55;;
78205;SDS011;67480;48.920;12.880;2023-10-13T14:59:09;7.20;;;4.82;;
78205;SDS011;67480;48.920;12.880;2023-10-13T15:01:42;7.07;;;4.88;;
78205;SDS011;67480;48.920;12.880;2023-10-13T15:04:07;8.93;;;4.32;;
78205;SDS011;67480;48.920;12.880;2023-10-13T15:06:33;7.25;;;4.95;;
78205;SDS011;67480;48.920;12.880;2023-10-13T15:08:58;10.85;;;5.85;;
78205;SDS011;67480;48.920;12.880;2023-10-13T15:11:25;10.18;;;5.95;;
78205;SDS011;67480;48.920;12.880;2023-10-13T15:13:55;7.72;;;5.45;;
78205;SDS011;67480;48.920;12.880;2023-10-13T15:16:21;6.78;;;6.10;;
78205;SDS011;67480;48.920;12.880;2023-10-13T15:18:49;7.97;;;5.18;;
78205;SDS011;67480;48.920;12.880;2023-10-13T15:23:53;9.18;;;5.43;;
78205;SDS011;67480;48.920;12.880;2023-10-13T15:26:24;6.93;;;4.35;;